Time;durP1;ratioP1;P1;durP2;ratioP2;P2;SDS_P1;SDS_P2;PMS_P1;PMS_P2;Temp;Humidity;BMP_temperature;BMP_pressure;BME280_temperature;BME280_humidity;BME280_pressure;Samples;Min_cycle;Max_cycle;Signal;HPM_P1;HPM_P2
2020/12/22 00:03:52;;;;;;;119.7;89.9;;;;;;;-2.5;88.56543;99432.84;;;;
2020/12/22 00:13:49;;;;;;;114.9;84.6;;;;;;;-2.58;88.12207;99414.56;;;;
2020/12/22 00:23:47;;;;;;;113.9;77.3;;;;;;;-2.62;87.57813;99408.06;;;;
2020/12/22 00:33:44;;;;;;;87.8;69.7;;;;;;;-2.74;87.22949;99399.92;;;;
2020/12/22 00:43:42;;;;;;;87.2;67;;;;;;;-2.77;87.12402;99404.8;;;;
2020/12/22 00:53:41;;;;;;;100.6;80;;;;;;;-2.87;88.12598;99393.83;;;;
2020/12/22 01:03:36;;;;;;;113.4;82.9;;;;;;;-2.94;88.85352;99377.19;;;;
2020/12/22 01:13:34;;;;;;;117.1;85.2;;;;;;;-2.91;89.30566;99356.5;;;;
2020/12/22 01:23:31;;;;;;;136.7;90.6;;;;;;;-3.02;88.95605;99335.21;;;;
2020/12/22 01:33:30;;;;;;;110.2;75;;;;;;;-3.17;88.20605;99322.21;;;;
2020/12/22 01:43:26;;;;;;;119.1;83;;;;;;;-3.16;87.76172;99329.11;;;;
2020/12/22 01:53:23;;;;;;;126.4;83.6;;;;;;;-3.3;87.91895;99320.38;;;;
2020/12/22 02:03:21;;;;;;;96.6;69.9;;;;;;;-3.45;87.8877;99306.56;;;;
2020/12/22 02:13:18;;;;;;;100.9;69;;;;;;;-3.48;88.1084;99282.44;;;;
2020/12/22 02:23:15;;;;;;;89.9;65.6;;;;;;;-3.55;88.78027;99303.5;;;;
2020/12/22 02:33:13;;;;;;;97.3;65.6;;;;;;;-3.57;88.83105;99311.59;;;;
2020/12/22 02:43:10;;;;;;;77.2;55.1;;;;;;;-3.56;87.42871;99280.8;;;;
2020/12/22 02:53:07;;;;;;;126.3;81.5;;;;;;;-3.84;89.30762;99254.59;;;;
2020/12/22 03:03:04;;;;;;;113.6;72.7;;;;;;;-3.91;89.59473;99226.62;;;;
2020/12/22 03:13:02;;;;;;;81.4;62;;;;;;;-3.78;89.27539;99231.91;;;;
2020/12/22 03:23:01;;;;;;;81.6;62.8;;;;;;;-3.65;88.82324;99245.13;;;;
2020/12/22 03:32:56;;;;;;;84.2;60.9;;;;;;;-3.49;88.65039;99236.83;;;;
2020/12/22 03:42:54;;;;;;;71.7;51.9;;;;;;;-3.53;88.9043;99206.63;;;;
2020/12/22 03:52:51;;;;;;;72.2;45.9;;;;;;;-3.36;88.06934;99205.21;;;;
2020/12/22 04:02:48;;;;;;;76.3;53.5;;;;;;;-3.29;88.46484;99198.12;;;;
2020/12/22 04:12:46;;;;;;;88.6;57.4;;;;;;;-3.23;88.42188;99184.11;;;;
2020/12/22 04:22:43;;;;;;;94.5;60.4;;;;;;;-3.08;87.61719;99187.35;;;;
2020/12/22 04:32:43;;;;;;;95.5;61.5;;;;;;;-2.94;87.37207;99163.59;;;;
2020/12/22 04:42:38;;;;;;;72.8;52.8;;;;;;;-2.89;86.74902;99154.06;;;;
2020/12/22 04:52:35;;;;;;;86.9;62.4;;;;;;;-2.92;86.5166;99165.03;;;;
2020/12/22 05:02:41;;;;;;;69.5;50.9;;;;;;;-3.1;87.80762;99147.22;;;;
2020/12/22 05:12:32;;;;;;;85.1;58.4;;;;;;;-2.82;87.89746;99146.13;;;;
2020/12/22 05:22:27;;;;;;;84.8;63.9;;;;;;;-2.72;87.94141;99123.58;;;;
2020/12/22 05:32:27;;;;;;;80;62.8;;;;;;;-2.44;88.10742;99115.33;;;;
2020/12/22 05:42:22;;;;;;;70.9;49.5;;;;;;;-2.25;87.60059;99114.41;;;;
2020/12/22 05:52:23;;;;;;;77.7;56.3;;;;;;;-2.21;87.82813;99102.4;;;;
2020/12/22 06:02:17;;;;;;;78.3;54.4;;;;;;;-2.07;87.94531;99080.17;;;;
2020/12/22 06:12:15;;;;;;;77.5;55.5;;;;;;;-1.82;87.74414;99082.02;;;;
2020/12/22 06:22:12;;;;;;;81.3;59;;;;;;;-1.75;87.11426;99074.84;;;;
2020/12/22 06:32:10;;;;;;;77.6;56.9;;;;;;;-1.8;87.25586;99048.25;;;;
2020/12/22 06:42:07;;;;;;;83.9;60.6;;;;;;;-1.81;86.78418;99036.91;;;;
2020/12/22 06:52:05;;;;;;;69.7;54.6;;;;;;;-1.83;86.54004;99038.13;;;;
2020/12/22 07:02:02;;;;;;;80.2;59.8;;;;;;;-1.73;86.72461;99027.88;;;;
2020/12/22 07:12:00;;;;;;;86.6;59;;;;;;;-1.6;86.76074;99022.48;;;;
2020/12/22 07:21:57;;;;;;;70.7;53.8;;;;;;;-1.35;86.69336;99015.28;;;;
2020/12/22 07:31:55;;;;;;;89.7;62;;;;;;;-1;87.09277;99010.2;;;;
2020/12/22 07:41:52;;;;;;;82.5;61.8;;;;;;;-0.69;87.08008;99002.06;;;;
2020/12/22 07:51:50;;;;;;;72.1;59.2;;;;;;;-0.36;87.04688;98984.89;;;;
2020/12/22 08:01:48;;;;;;;86.9;67.7;;;;;;;-0.2;86.28027;98974.44;;;;
2020/12/22 08:11:45;;;;;;;102.9;80.1;;;;;;;0.05;86.38379;98965.48;;;;
2020/12/22 08:21:43;;;;;;;88.4;71.2;;;;;;;0.32;84.58203;98963.97;;;;
2020/12/22 08:31:41;;;;;;;86.8;77.3;;;;;;;0.45;85.65234;98955.79;;;;
2020/12/22 08:41:39;;;;;;;73.5;63.9;;;;;;;0.45;85.32422;98940.66;;;;
2020/12/22 08:51:37;;;;;;;76.9;60.2;;;;;;;0.73;85.83105;98904.64;;;;
2020/12/22 09:01:37;;;;;;;74.8;56.8;;;;;;;1.04;85.75977;98887.44;;;;
2020/12/22 09:11:33;;;;;;;71.7;57.5;;;;;;;1.16;84.85742;98885.52;;;;
2020/12/22 09:21:32;;;;;;;72.2;57.6;;;;;;;1.1;85.10059;98838.7;;;;
2020/12/22 09:31:31;;;;;;;71.4;58.7;;;;;;;1.27;84.93555;98837.67;;;;
2020/12/22 09:41:26;;;;;;;79.2;58.9;;;;;;;1.28;84.92676;98822.55;;;;
2020/12/22 09:51:24;;;;;;;69.7;53.5;;;;;;;1.45;85.31348;98826;;;;
2020/12/22 10:01:23;;;;;;;73.3;58.9;;;;;;;1.74;85.07422;98824.83;;;;
2020/12/22 10:11:20;;;;;;;72.6;52.3;;;;;;;1.94;84.70508;98816.34;;;;
2020/12/22 10:21:20;;;;;;;67.6;56;;;;;;;2;84.47461;98792.24;;;;
2020/12/22 10:31:16;;;;;;;66.6;57.1;;;;;;;2.13;84.31152;98800.88;;;;
2020/12/22 10:41:15;;;;;;;70.9;52.3;;;;;;;1.95;84.94922;98783.38;;;;
2020/12/22 10:51:12;;;;;;;73;60.1;;;;;;;2.09;85.69336;98759.89;;;;
2020/12/22 11:01:14;;;;;;;77.9;58;;;;;;;2.25;85.62695;98735.91;;;;
2020/12/22 11:11:09;;;;;;;66.5;55.6;;;;;;;2.5;85.46582;98719.38;;;;
2020/12/22 11:21:07;;;;;;;74.5;61.3;;;;;;;2.59;85.36426;98704.58;;;;
2020/12/22 11:31:05;;;;;;;68.2;56.1;;;;;;;2.76;84.97559;98712.44;;;;
2020/12/22 11:41:03;;;;;;;91.1;64.7;;;;;;;2.71;84.65625;98725.72;;;;
2020/12/22 11:51:01;;;;;;;77.9;57.5;;;;;;;2.7;85.02051;98705.47;;;;
2020/12/22 12:00:59;;;;;;;75.7;57.5;;;;;;;2.66;85.63184;98673.25;;;;
2020/12/22 12:10:57;;;;;;;66.2;54.7;;;;;;;3.02;85.84668;98690.27;;;;
2020/12/22 12:20:58;;;;;;;72.9;61.5;;;;;;;3.39;85.96387;98644.96;;;;
2020/12/22 12:30:54;;;;;;;81.1;66.5;;;;;;;3.74;85.23633;98652.3;;;;
2020/12/22 12:40:52;;;;;;;79.2;65.5;;;;;;;3.7;85.05176;98646.69;;;;
2020/12/22 12:50:50;;;;;;;83.9;67.3;;;;;;;3.72;85.54492;98649.89;;;;
2020/12/22 13:00:49;;;;;;;43.3;33.9;;;;;;;3.97;85.96973;98657.16;;;;
2020/12/22 13:10:47;;;;;;;23.6;19.6;;;;;;;4.24;86.03613;98652.42;;;;
2020/12/22 13:20:45;;;;;;;19.1;14.3;;;;;;;4.52;85.62305;98640.44;;;;
2020/12/22 13:30:43;;;;;;;13;10.4;;;;;;;4.8;85.34668;98641.77;;;;
2020/12/22 13:40:42;;;;;;;15.1;10.5;;;;;;;5.02;85.95605;98618.25;;;;
2020/12/22 13:50:40;;;;;;;17.6;11.3;;;;;;;5.17;84.99902;98626.23;;;;
2020/12/22 14:00:38;;;;;;;13;9.4;;;;;;;5.36;84.78027;98621.89;;;;
2020/12/22 14:10:37;;;;;;;10;6.6;;;;;;;5.53;83.97852;98637.59;;;;
2020/12/22 14:20:35;;;;;;;12.2;7;;;;;;;5.59;83.5791;98625.8;;;;
2020/12/22 14:30:34;;;;;;;55.2;45.5;;;;;;;5.35;82.76465;98640.85;;;;
2020/12/22 14:40:32;;;;;;;70.3;61.3;;;;;;;5.05;82.61914;98637.2;;;;
2020/12/22 14:50:32;;;;;;;42;33.2;;;;;;;4.84;84.75586;98632.95;;;;
2020/12/22 15:00:32;;;;;;;17.7;10.6;;;;;;;5.17;84.89648;98633.45;;;;
2020/12/22 15:10:28;;;;;;;11.1;7.4;;;;;;;5.49;84.29297;98636.53;;;;
2020/12/22 15:20:26;;;;;;;8.2;5.3;;;;;;;5.68;83.37207;98634.06;;;;
2020/12/22 15:30:25;;;;;;;8.7;5.6;;;;;;;5.77;83.12305;98633.2;;;;
2020/12/22 15:40:23;;;;;;;8.2;5;;;;;;;5.78;83.08105;98632.14;;;;
2020/12/22 15:50:22;;;;;;;9.3;6.8;;;;;;;5.81;83.19727;98620.89;;;;
2020/12/22 16:00:20;;;;;;;7.4;5.5;;;;;;;5.84;83.14844;98612.31;;;;
2020/12/22 16:10:21;;;;;;;10.6;8.5;;;;;;;5.89;83.05664;98622.22;;;;
2020/12/22 16:20:17;;;;;;;19;12.9;;;;;;;5.98;83.10742;98636.61;;;;
2020/12/22 16:30:16;;;;;;;13.7;10.2;;;;;;;6.07;82.58887;98640.32;;;;
2020/12/22 16:40:14;;;;;;;13.9;7.2;;;;;;;6.1;82.7168;98633.61;;;;
2020/12/22 16:50:13;;;;;;;14.9;7.4;;;;;;;6.07;83.06836;98637.64;;;;
2020/12/22 17:00:11;;;;;;;9.6;6.9;;;;;;;6.01;84.42871;98618.13;;;;
2020/12/22 17:10:10;;;;;;;7.8;6.1;;;;;;;6.02;84.96289;98626.95;;;;
2020/12/22 17:20:08;;;;;;;9.6;6.3;;;;;;;6.12;84.86035;98631.44;;;;
2020/12/22 17:30:07;;;;;;;9.3;7;;;;;;;6.2;84.48535;98628.19;;;;
2020/12/22 17:40:06;;;;;;;8.5;6.1;;;;;;;6.31;83.65039;98629.73;;;;
2020/12/22 17:50:04;;;;;;;10.9;5.6;;;;;;;6.42;83.89355;98641.97;;;;
2020/12/22 18:00:03;;;;;;;13.8;7.1;;;;;;;6.45;84.38184;98644.89;;;;
2020/12/22 18:10:02;;;;;;;16.2;7.7;;;;;;;6.49;84.47656;98653.16;;;;
2020/12/22 18:20:00;;;;;;;14.1;8.8;;;;;;;6.45;84.69434;98650.23;;;;
2020/12/22 18:29:59;;;;;;;9.9;6.4;;;;;;;6.4;84.54785;98652.14;;;;
2020/12/22 18:39:57;;;;;;;8;7.1;;;;;;;6.45;84.48242;98650.23;;;;
2020/12/22 18:49:56;;;;;;;13.7;8.2;;;;;;;6.47;84.15137;98664.13;;;;
2020/12/22 18:59:55;;;;;;;17.1;8.6;;;;;;;6.49;84.02051;98667.31;;;;
2020/12/22 19:09:53;;;;;;;11.5;7.1;;;;;;;6.38;85.14648;98657.78;;;;
2020/12/22 19:19:52;;;;;;;9.3;5.8;;;;;;;6.53;84.33984;98656.85;;;;
2020/12/22 19:29:52;;;;;;;14.8;7.9;;;;;;;6.51;84.24609;98664.38;;;;
2020/12/22 19:39:49;;;;;;;10.4;6.9;;;;;;;6.51;84.40137;98659.02;;;;
2020/12/22 19:49:48;;;;;;;7.3;5.2;;;;;;;6.53;83.88281;98678.27;;;;
2020/12/22 19:59:47;;;;;;;9.3;5.3;;;;;;;6.53;83.78223;98662.2;;;;
2020/12/22 20:09:45;;;;;;;7.6;5.1;;;;;;;6.59;83.48047;98669.15;;;;
2020/12/22 20:19:44;;;;;;;10.9;5.2;;;;;;;6.58;83.19043;98662.98;;;;
2020/12/22 20:29:42;;;;;;;6.4;4.5;;;;;;;6.77;81.89746;98673.8;;;;
2020/12/22 20:39:41;;;;;;;7.1;4.4;;;;;;;6.81;82.09473;98669.48;;;;
2020/12/22 20:49:39;;;;;;;9.4;4.8;;;;;;;6.85;81.34277;98670.53;;;;
2020/12/22 20:59:38;;;;;;;6.5;3.3;;;;;;;6.96;81.03809;98657.84;;;;
2020/12/22 21:09:41;;;;;;;8;4.2;;;;;;;7.08;81.00488;98642.17;;;;
2020/12/22 21:19:38;;;;;;;7;4.6;;;;;;;7.17;80.89844;98656.58;;;;
2020/12/22 21:29:34;;;;;;;7.1;4.4;;;;;;;7.28;80.50488;98662.64;;;;
2020/12/22 21:39:35;;;;;;;10;4.6;;;;;;;7.33;80.53711;98676.78;;;;
2020/12/22 21:49:35;;;;;;;7.1;3.7;;;;;;;7.35;80.64063;98673.83;;;;
2020/12/22 21:59:33;;;;;;;7.5;4.3;;;;;;;7.38;80.61426;98684.78;;;;
2020/12/22 22:09:29;;;;;;;8.6;4.9;;;;;;;7.34;81.1543;98688.3;;;;
2020/12/22 22:19:27;;;;;;;8.5;4.5;;;;;;;7.36;81.22461;98696.84;;;;
2020/12/22 22:29:26;;;;;;;9.7;6.6;;;;;;;7.25;82.53516;98682.77;;;;
2020/12/22 22:39:26;;;;;;;8;5.2;;;;;;;7.24;82.74512;98685.73;;;;
2020/12/22 22:49:23;;;;;;;5.3;3.5;;;;;;;7.31;82.06641;98688.88;;;;
2020/12/22 22:59:22;;;;;;;5.1;3;;;;;;;7.41;81.3125;98678.05;;;;
2020/12/22 23:09:21;;;;;;;7;4.1;;;;;;;7.46;81.15332;98686.05;;;;
2020/12/22 23:19:20;;;;;;;5.7;3.4;;;;;;;7.55;80.33203;98681.64;;;;
2020/12/22 23:29:18;;;;;;;5.8;3.3;;;;;;;7.6;80.20801;98682.38;;;;
2020/12/22 23:39:17;;;;;;;6.6;3;;;;;;;7.64;80.14746;98687.16;;;;
2020/12/22 23:49:17;;;;;;;5.6;3.1;;;;;;;7.71;80.03711;98672.33;;;;
2020/12/22 23:59:14;;;;;;;6.2;3.7;;;;;;;7.69;80.11133;98673.7;;;;
